sensor_id;sensor_type;location;lat;lon;timestamp;pressure;altitude;pressure_sealevel;temperature;humidity
76990;BME280;65924;47.250;11.332;2023-04-07T00:00:37;94895.06;;;6.49;46.28
76990;BME280;65924;47.250;11.332;2023-04-07T00:01:16;94891.10;;;6.47;46.27
76990;BME280;65924;47.250;11.332;2023-04-07T00:01:54;94892.91;;;6.47;46.55
76990;BME280;65924;47.250;11.332;2023-04-07T00:02:33;94893.94;;;6.48;46.49
76990;BME280;65924;47.250;11.332;2023-04-07T00:03:12;94892.60;;;6.47;46.45
76990;BME280;65924;47.250;11.332;2023-04-07T00:03:50;94890.08;;;6.47;46.47
76990;BME280;65924;47.250;11.332;2023-04-07T00:04:29;94890.11;;;6.46;46.33
76990;BME280;65924;47.250;11.332;2023-04-07T00:05:07;94890.13;;;6.45;46.30
76990;BME280;65924;47.250;11.332;2023-04-07T00:05:46;94886.10;;;6.45;46.54
76990;BME280;65924;47.250;11.332;2023-04-07T00:06:25;94888.70;;;6.44;46.50
76990;BME280;65924;47.250;11.332;2023-04-07T00:07:04;94888.49;;;6.44;46.41
76990;BME280;65924;47.250;11.332;2023-04-07T00:07:43;94888.35;;;6.44;46.53
76990;BME280;65924;47.250;11.332;2023-04-07T00:08:21;94889.52;;;6.44;46.44
76990;BME280;65924;47.250;11.332;2023-04-07T00:09:00;94892.25;;;6.44;46.34
76990;BME280;65924;47.250;11.332;2023-04-07T00:09:38;94893.61;;;6.43;46.37
76990;BME280;65924;47.250;11.332;2023-04-07T00:10:17;94892.27;;;6.43;46.45
76990;BME280;65924;47.250;11.332;2023-04-07T00:10:56;94890.73;;;6.44;46.27
76990;BME280;65924;47.250;11.332;2023-04-07T00:11:36;94890.41;;;6.43;46.21
76990;BME280;65924;47.250;11.332;2023-04-07T00:12:14;94889.57;;;6.43;46.29
76990;BME280;65924;47.250;11.332;2023-04-07T00:12:53;94890.59;;;6.43;46.49
76990;BME280;65924;47.250;11.332;2023-04-07T00:13:32;94891.61;;;6.43;46.47
76990;BME280;65924;47.250;11.332;2023-04-07T00:14:10;94890.09;;;6.43;46.71
76990;BME280;65924;47.250;11.332;2023-04-07T00:14:48;94893.11;;;6.43;46.73
76990;BME280;65924;47.250;11.332;2023-04-07T00:15:27;94891.94;;;6.43;46.73
76990;BME280;65924;47.250;11.332;2023-04-07T00:16:06;94891.60;;;6.43;46.76
76990;BME280;65924;47.250;11.332;2023-04-07T00:16:44;94891.75;;;6.43;46.76
76990;BME280;65924;47.250;11.332;2023-04-07T00:17:23;94892.27;;;6.43;46.75
76990;BME280;65924;47.250;11.332;2023-04-07T00:18:02;94891.26;;;6.43;46.81
76990;BME280;65924;47.250;11.332;2023-04-07T00:18:41;94891.08;;;6.43;46.79
76990;BME280;65924;47.250;11.332;2023-04-07T00:19:19;94891.23;;;6.44;46.80
76990;BME280;65924;47.250;11.332;2023-04-07T00:19:58;94890.55;;;6.44;46.96
76990;BME280;65924;47.250;11.332;2023-04-07T00:20:36;94890.36;;;6.44;47.01
76990;BME280;65924;47.250;11.332;2023-04-07T00:21:15;94887.16;;;6.44;47.10
76990;BME280;65924;47.250;11.332;2023-04-07T00:21:53;94887.65;;;6.45;47.23
76990;BME280;65924;47.250;11.332;2023-04-07T00:22:32;94890.38;;;6.44;47.30
76990;BME280;65924;47.250;11.332;2023-04-07T00:23:11;94888.36;;;6.44;47.52
76990;BME280;65924;47.250;11.332;2023-04-07T00:23:49;94889.90;;;6.43;47.41
76990;BME280;65924;47.250;11.332;2023-04-07T00:24:28;94888.20;;;6.44;47.49
76990;BME280;65924;47.250;11.332;2023-04-07T00:25:07;94883.79;;;6.44;47.50
76990;BME280;65924;47.250;11.332;2023-04-07T00:25:47;94884.16;;;6.43;47.47
76990;BME280;65924;47.250;11.332;2023-04-07T00:26:26;94884.81;;;6.44;47.48
76990;BME280;65924;47.250;11.332;2023-04-07T00:27:09;94883.27;;;6.44;47.42
76990;BME280;65924;47.250;11.332;2023-04-07T00:27:47;94884.27;;;6.44;47.45
76990;BME280;65924;47.250;11.332;2023-04-07T00:28:26;94883.23;;;6.45;47.32
76990;BME280;65924;47.250;11.332;2023-04-07T00:29:04;94883.04;;;6.45;47.13
76990;BME280;65924;47.250;11.332;2023-04-07T00:29:43;94880.84;;;6.46;47.08
76990;BME280;65924;47.250;11.332;2023-04-07T00:30:24;94880.16;;;6.46;47.07
76990;BME280;65924;47.250;11.332;2023-04-07T00:31:02;94882.04;;;6.45;47.08
76990;BME280;65924;47.250;11.332;2023-04-07T00:31:41;94877.45;;;6.46;47.07
76990;BME280;65924;47.250;11.332;2023-04-07T00:32:20;94881.66;;;6.46;47.14
76990;BME280;65924;47.250;11.332;2023-04-07T00:32:59;94878.58;;;6.47;47.19
76990;BME280;65924;47.250;11.332;2023-04-07T00:33:37;94875.46;;;6.45;47.27
76990;BME280;65924;47.250;11.332;2023-04-07T00:34:16;94876.38;;;6.47;47.25
76990;BME280;65924;47.250;11.332;2023-04-07T00:34:54;94880.92;;;6.48;47.01
76990;BME280;65924;47.250;11.332;2023-04-07T00:35:33;94878.89;;;6.48;47.14
76990;BME280;65924;47.250;11.332;2023-04-07T00:36:11;94879.05;;;6.48;47.12
76990;BME280;65924;47.250;11.332;2023-04-07T00:36:51;94880.73;;;6.48;46.92
76990;BME280;65924;47.250;11.332;2023-04-07T00:37:30;94878.90;;;6.47;46.78
76990;BME280;65924;47.250;11.332;2023-04-07T00:38:08;94880.80;;;6.47;46.96
76990;BME280;65924;47.250;11.332;2023-04-07T00:38:47;94878.92;;;6.47;47.01
76990;BME280;65924;47.250;11.332;2023-04-07T00:39:25;94877.74;;;6.47;47.19
76990;BME280;65924;47.250;11.332;2023-04-07T00:40:05;94877.21;;;6.47;47.33
76990;BME280;65924;47.250;11.332;2023-04-07T00:40:44;94878.10;;;6.46;47.57
76990;BME280;65924;47.250;11.332;2023-04-07T00:41:23;94873.23;;;6.46;47.30
76990;BME280;65924;47.250;11.332;2023-04-07T00:42:03;94876.58;;;6.46;47.40
76990;BME280;65924;47.250;11.332;2023-04-07T00:42:42;94873.91;;;6.46;47.37
76990;BME280;65924;47.250;11.332;2023-04-07T00:43:21;94871.23;;;6.45;47.20
76990;BME280;65924;47.250;11.332;2023-04-07T00:43:59;94866.67;;;6.45;47.22
76990;BME280;65924;47.250;11.332;2023-04-07T00:44:38;94865.89;;;6.44;47.29
76990;BME280;65924;47.250;11.332;2023-04-07T00:45:17;94866.71;;;6.44;47.16
76990;BME280;65924;47.250;11.332;2023-04-07T00:45:55;94864.54;;;6.44;47.11
76990;BME280;65924;47.250;11.332;2023-04-07T00:46:34;94864.23;;;6.43;47.22
76990;BME280;65924;47.250;11.332;2023-04-07T00:47:14;94863.39;;;6.43;47.16
76990;BME280;65924;47.250;11.332;2023-04-07T00:47:53;94860.71;;;6.43;47.29
76990;BME280;65924;47.250;11.332;2023-04-07T00:48:31;94860.67;;;6.44;47.36
76990;BME280;65924;47.250;11.332;2023-04-07T00:49:10;94858.15;;;6.44;47.38
76990;BME280;65924;47.250;11.332;2023-04-07T00:49:50;94862.73;;;6.43;47.39
76990;BME280;65924;47.250;11.332;2023-04-07T00:50:29;94858.60;;;6.41;47.44
76990;BME280;65924;47.250;11.332;2023-04-07T00:51:07;94860.19;;;6.43;47.40
76990;BME280;65924;47.250;11.332;2023-04-07T00:51:46;94861.19;;;6.44;47.56
76990;BME280;65924;47.250;11.332;2023-04-07T00:52:25;94858.50;;;6.43;47.61
76990;BME280;65924;47.250;11.332;2023-04-07T00:53:07;94860.08;;;6.42;47.64
76990;BME280;65924;47.250;11.332;2023-04-07T00:53:46;94859.75;;;6.42;47.63
76990;BME280;65924;47.250;11.332;2023-04-07T00:54:24;94858.90;;;6.42;47.55
76990;BME280;65924;47.250;11.332;2023-04-07T00:55:03;94858.21;;;6.42;47.58
76990;BME280;65924;47.250;11.332;2023-04-07T00:55:42;94859.91;;;6.42;47.65
76990;BME280;65924;47.250;11.332;2023-04-07T00:56:21;94858.06;;;6.42;47.73
76990;BME280;65924;47.250;11.332;2023-04-07T00:57:00;94857.56;;;6.42;47.83
76990;BME280;65924;47.250;11.332;2023-04-07T00:57:39;94855.19;;;6.42;47.60
76990;BME280;65924;47.250;11.332;2023-04-07T00:58:17;94856.43;;;6.40;47.55
76990;BME280;65924;47.250;11.332;2023-04-07T00:58:59;94853.27;;;6.39;47.70
76990;BME280;65924;47.250;11.332;2023-04-07T00:59:38;94852.77;;;6.39;47.78
76990;BME280;65924;47.250;11.332;2023-04-07T01:00:16;94851.09;;;6.39;47.79
76990;BME280;65924;47.250;11.332;2023-04-07T01:01:06;94852.95;;;6.39;47.90
76990;BME280;65924;47.250;11.332;2023-04-07T01:01:52;94849.08;;;6.38;47.87
76990;BME280;65924;47.250;11.332;2023-04-07T01:02:40;94849.96;;;6.37;47.72
76990;BME280;65924;47.250;11.332;2023-04-07T01:03:27;94846.14;;;6.36;47.98
76990;BME280;65924;47.250;11.332;2023-04-07T01:04:12;94847.39;;;6.35;48.04
76990;BME280;65924;47.250;11.332;2023-04-07T01:04:54;94842.04;;;6.34;47.88
76990;BME280;65924;47.250;11.332;2023-04-07T01:05:41;94842.39;;;6.34;47.88
76990;BME280;65924;47.250;11.332;2023-04-07T01:06:25;94841.39;;;6.33;47.89
76990;BME280;65924;47.250;11.332;2023-04-07T01:07:26;94844.77;;;6.33;47.98
76990;BME280;65924;47.250;11.332;2023-04-07T01:08:32;94840.91;;;6.33;48.11
76990;BME280;65924;47.250;11.332;2023-04-07T01:09:26;94843.14;;;6.32;48.15
76990;BME280;65924;47.250;11.332;2023-04-07T01:10:11;94843.66;;;6.31;48.41
76990;BME280;65924;47.250;11.332;2023-04-07T01:12:53;94841.20;;;6.30;48.67
76990;BME280;65924;47.250;11.332;2023-04-07T01:13:47;94844.73;;;6.30;48.39
76990;BME280;65924;47.250;11.332;2023-04-07T01:14:56;94842.46;;;6.28;48.26
76990;BME280;65924;47.250;11.332;2023-04-07T01:15:54;94841.31;;;6.28;48.41
76990;BME280;65924;47.250;11.332;2023-04-07T01:17:24;94840.64;;;6.28;48.69
76990;BME280;65924;47.250;11.332;2023-04-07T01:18:09;94841.52;;;6.27;48.67
76990;BME280;65924;47.250;11.332;2023-04-07T01:18:53;94835.97;;;6.27;48.67
76990;BME280;65924;47.250;11.332;2023-04-07T01:19:37;94834.09;;;6.27;48.61
76990;BME280;65924;47.250;11.332;2023-04-07T01:20:21;94832.23;;;6.27;48.50
76990;BME280;65924;47.250;11.332;2023-04-07T01:21:10;94837.08;;;6.28;48.38
76990;BME280;65924;47.250;11.332;2023-04-07T01:21:55;94833.45;;;6.26;47.88
76990;BME280;65924;47.250;11.332;2023-04-07T01:23:22;94838.70;;;6.29;47.94
76990;BME280;65924;47.250;11.332;2023-04-07T01:25:34;94839.73;;;6.29;48.28
76990;BME280;65924;47.250;11.332;2023-04-07T01:26:32;94836.38;;;6.29;48.34
76990;BME280;65924;47.250;11.332;2023-04-07T01:27:20;94841.95;;;6.28;48.37
76990;BME280;65924;47.250;11.332;2023-04-07T01:30:04;94845.29;;;6.29;48.59
76990;BME280;65924;47.250;11.332;2023-04-07T01:30:47;94843.46;;;6.29;48.47
76990;BME280;65924;47.250;11.332;2023-04-07T01:31:27;94842.92;;;6.29;48.69
76990;BME280;65924;47.250;11.332;2023-04-07T01:32:09;94843.65;;;6.28;48.68
76990;BME280;65924;47.250;11.332;2023-04-07T01:32:51;94845.79;;;6.29;48.58
76990;BME280;65924;47.250;11.332;2023-04-07T01:33:31;94845.96;;;6.29;48.65
76990;BME280;65924;47.250;11.332;2023-04-07T01:34:12;94843.42;;;6.29;48.21
76990;BME280;65924;47.250;11.332;2023-04-07T01:34:52;94847.62;;;6.30;48.10
76990;BME280;65924;47.250;11.332;2023-04-07T01:35:34;94846.41;;;6.30;48.19
76990;BME280;65924;47.250;11.332;2023-04-07T01:36:15;94844.22;;;6.30;48.33
76990;BME280;65924;47.250;11.332;2023-04-07T01:36:54;94850.14;;;6.30;48.22
76990;BME280;65924;47.250;11.332;2023-04-07T01:37:36;94850.45;;;6.31;48.27
76990;BME280;65924;47.250;11.332;2023-04-07T01:38:15;94850.09;;;6.31;48.17
76990;BME280;65924;47.250;11.332;2023-04-07T01:38:56;94851.23;;;6.32;48.21
76990;BME280;65924;47.250;11.332;2023-04-07T01:39:37;94853.10;;;6.32;48.23
76990;BME280;65924;47.250;11.332;2023-04-07T01:40:17;94853.95;;;6.32;48.44
76990;BME280;65924;47.250;11.332;2023-04-07T01:40:57;94853.91;;;6.33;48.53
76990;BME280;65924;47.250;11.332;2023-04-07T01:41:37;94852.77;;;6.32;48.58
76990;BME280;65924;47.250;11.332;2023-04-07T01:42:18;94855.96;;;6.32;48.69
76990;BME280;65924;47.250;11.332;2023-04-07T01:42:57;94857.34;;;6.31;48.69
76990;BME280;65924;47.250;11.332;2023-04-07T01:43:38;94856.67;;;6.31;48.82
76990;BME280;65924;47.250;11.332;2023-04-07T01:44:18;94855.45;;;6.29;48.73
76990;BME280;65924;47.250;11.332;2023-04-07T01:44:58;94855.65;;;6.31;48.76
76990;BME280;65924;47.250;11.332;2023-04-07T01:45:39;94855.97;;;6.32;48.87
76990;BME280;65924;47.250;11.332;2023-04-07T01:46:20;94855.78;;;6.32;48.67
76990;BME280;65924;47.250;11.332;2023-04-07T01:46:59;94855.23;;;6.33;48.86
76990;BME280;65924;47.250;11.332;2023-04-07T01:47:38;94853.58;;;6.32;48.64
76990;BME280;65924;47.250;11.332;2023-04-07T01:48:19;94851.20;;;6.33;48.76
76990;BME280;65924;47.250;11.332;2023-04-07T01:48:59;94849.84;;;6.33;48.60
76990;BME280;65924;47.250;11.332;2023-04-07T01:49:39;94845.56;;;6.34;48.48
76990;BME280;65924;47.250;11.332;2023-04-07T01:50:20;94849.11;;;6.34;48.44
76990;BME280;65924;47.250;11.332;2023-04-07T01:50:59;94847.40;;;6.34;48.41
76990;BME280;65924;47.250;11.332;2023-04-07T01:51:39;94847.06;;;6.34;48.47
76990;BME280;65924;47.250;11.332;2023-04-07T01:52:19;94846.67;;;6.36;48.26
76990;BME280;65924;47.250;11.332;2023-04-07T01:52:59;94846.64;;;6.36;48.23
76990;BME280;65924;47.250;11.332;2023-04-07T01:53:38;94845.75;;;6.37;47.93
76990;BME280;65924;47.250;11.332;2023-04-07T01:54:17;94845.17;;;6.39;47.76
76990;BME280;65924;47.250;11.332;2023-04-07T01:54:56;94844.95;;;6.40;47.41
76990;BME280;65924;47.250;11.332;2023-04-07T01:55:37;94846.79;;;6.40;47.50
76990;BME280;65924;47.250;11.332;2023-04-07T01:56:20;94847.44;;;6.42;47.60
76990;BME280;65924;47.250;11.332;2023-04-07T01:57:02;94845.73;;;6.41;47.44
76990;BME280;65924;47.250;11.332;2023-04-07T01:57:41;94845.73;;;6.42;47.58
76990;BME280;65924;47.250;11.332;2023-04-07T01:58:25;94843.83;;;6.43;47.45
76990;BME280;65924;47.250;11.332;2023-04-07T01:59:04;94844.84;;;6.43;47.54
76990;BME280;65924;47.250;11.332;2023-04-07T01:59:43;94842.14;;;6.43;47.67
76990;BME280;65924;47.250;11.332;2023-04-07T02:00:22;94844.13;;;6.44;47.84
76990;BME280;65924;47.250;11.332;2023-04-07T02:01:02;94841.60;;;6.43;47.73
76990;BME280;65924;47.250;11.332;2023-04-07T02:01:41;94844.80;;;6.44;47.45
76990;BME280;65924;47.250;11.332;2023-04-07T02:02:20;94846.45;;;6.44;47.53
76990;BME280;65924;47.250;11.332;2023-04-07T02:03:06;94844.11;;;6.44;47.39
76990;BME280;65924;47.250;11.332;2023-04-07T02:03:55;94844.13;;;6.43;47.41
76990;BME280;65924;47.250;11.332;2023-04-07T02:04:43;94838.21;;;6.40;47.45
76990;BME280;65924;47.250;11.332;2023-04-07T02:05:28;94843.52;;;6.42;47.43
76990;BME280;65924;47.250;11.332;2023-04-07T02:06:11;94840.39;;;6.40;47.39
76990;BME280;65924;47.250;11.332;2023-04-07T02:07:00;94844.08;;;6.41;47.64
76990;BME280;65924;47.250;11.332;2023-04-07T02:07:53;94842.23;;;6.40;47.65
76990;BME280;65924;47.250;11.332;2023-04-07T02:08:38;94841.27;;;6.39;47.70
76990;BME280;65924;47.250;11.332;2023-04-07T02:09:21;94842.77;;;6.40;48.00
76990;BME280;65924;47.250;11.332;2023-04-07T02:10:02;94844.09;;;6.40;48.16
76990;BME280;65924;47.250;11.332;2023-04-07T02:10:45;94842.45;;;6.39;48.20
76990;BME280;65924;47.250;11.332;2023-04-07T02:11:25;94844.45;;;6.40;48.28
76990;BME280;65924;47.250;11.332;2023-04-07T02:12:07;94843.95;;;6.40;48.16
76990;BME280;65924;47.250;11.332;2023-04-07T02:12:48;94843.80;;;6.39;48.13
76990;BME280;65924;47.250;11.332;2023-04-07T02:13:28;94843.48;;;6.39;47.92
76990;BME280;65924;47.250;11.332;2023-04-07T02:14:08;94841.66;;;6.38;47.83
76990;BME280;65924;47.250;11.332;2023-04-07T02:15:03;94843.32;;;6.39;47.90
76990;BME280;65924;47.250;11.332;2023-04-07T02:15:44;94838.27;;;6.38;47.93
76990;BME280;65924;47.250;11.332;2023-04-07T02:16:24;94841.14;;;6.38;47.96
76990;BME280;65924;47.250;11.332;2023-04-07T02:17:04;94841.00;;;6.38;47.98
76990;BME280;65924;47.250;11.332;2023-04-07T02:17:48;94840.34;;;6.37;47.96
76990;BME280;65924;47.250;11.332;2023-04-07T02:18:30;94839.81;;;6.38;47.91
76990;BME280;65924;47.250;11.332;2023-04-07T02:19:09;94843.03;;;6.38;47.88
76990;BME280;65924;47.250;11.332;2023-04-07T02:19:49;94840.54;;;6.37;47.99
76990;BME280;65924;47.250;11.332;2023-04-07T02:20:29;94839.86;;;6.37;47.89
76990;BME280;65924;47.250;11.332;2023-04-07T02:21:08;94839.05;;;6.36;47.87
76990;BME280;65924;47.250;11.332;2023-04-07T02:21:50;94837.70;;;6.36;47.84
76990;BME280;65924;47.250;11.332;2023-04-07T02:22:30;94836.52;;;6.36;47.83
76990;BME280;65924;47.250;11.332;2023-04-07T02:23:11;94837.04;;;6.36;47.82
76990;BME280;65924;47.250;11.332;2023-04-07T02:23:50;94840.77;;;6.36;47.96
76990;BME280;65924;47.250;11.332;2023-04-07T02:24:29;94838.73;;;6.36;48.07
76990;BME280;65924;47.250;11.332;2023-04-07T02:25:28;94837.23;;;6.35;48.17
76990;BME280;65924;47.250;11.332;2023-04-07T02:26:07;94837.27;;;6.35;47.91
76990;BME280;65924;47.250;11.332;2023-04-07T02:26:45;94838.98;;;6.34;47.96
76990;BME280;65924;47.250;11.332;2023-04-07T02:27:25;94834.42;;;6.34;47.96
76990;BME280;65924;47.250;11.332;2023-04-07T02:28:04;94834.29;;;6.33;47.97
76990;BME280;65924;47.250;11.332;2023-04-07T02:28:44;94833.56;;;6.35;48.01
76990;BME280;65924;47.250;11.332;2023-04-07T02:29:22;94834.71;;;6.35;47.78
76990;BME280;65924;47.250;11.332;2023-04-07T02:30:01;94830.52;;;6.35;47.80
76990;BME280;65924;47.250;11.332;2023-04-07T02:30:39;94830.36;;;6.34;47.91
76990;BME280;65924;47.250;11.332;2023-04-07T02:31:18;94832.71;;;6.35;47.93
76990;BME280;65924;47.250;11.332;2023-04-07T02:31:57;94832.34;;;6.35;48.04
76990;BME280;65924;47.250;11.332;2023-04-07T02:32:35;94831.65;;;6.36;48.08
76990;BME280;65924;47.250;11.332;2023-04-07T02:33:14;94830.65;;;6.35;48.34
76990;BME280;65924;47.250;11.332;2023-04-07T02:33:54;94832.52;;;6.35;48.07
76990;BME280;65924;47.250;11.332;2023-04-07T02:34:33;94830.88;;;6.34;47.96
76990;BME280;65924;47.250;11.332;2023-04-07T02:35:11;94832.39;;;6.34;47.82
76990;BME280;65924;47.250;11.332;2023-04-07T02:35:50;94831.73;;;6.33;47.78
76990;BME280;65924;47.250;11.332;2023-04-07T02:36:28;94831.88;;;6.34;47.88
76990;BME280;65924;47.250;11.332;2023-04-07T02:37:07;94829.39;;;6.33;47.94
76990;BME280;65924;47.250;11.332;2023-04-07T02:37:46;94827.85;;;6.34;48.06
76990;BME280;65924;47.250;11.332;2023-04-07T02:38:24;94827.73;;;6.33;48.26
76990;BME280;65924;47.250;11.332;2023-04-07T02:39:03;94824.89;;;6.32;48.14
76990;BME280;65924;47.250;11.332;2023-04-07T02:39:41;94820.09;;;6.30;48.35
76990;BME280;65924;47.250;11.332;2023-04-07T02:40:20;94822.73;;;6.31;48.36
76990;BME280;65924;47.250;11.332;2023-04-07T02:40:58;94821.20;;;6.32;48.28
76990;BME280;65924;47.250;11.332;2023-04-07T02:41:40;94818.65;;;6.32;48.40
76990;BME280;65924;47.250;11.332;2023-04-07T02:42:19;94822.88;;;6.32;48.50
76990;BME280;65924;47.250;11.332;2023-04-07T02:42:58;94822.23;;;6.31;48.32
76990;BME280;65924;47.250;11.332;2023-04-07T02:43:36;94819.70;;;6.31;48.37
76990;BME280;65924;47.250;11.332;2023-04-07T02:44:15;94818.89;;;6.31;48.10
76990;BME280;65924;47.250;11.332;2023-04-07T02:44:54;94816.05;;;6.30;47.94
76990;BME280;65924;47.250;11.332;2023-04-07T02:45:33;94818.76;;;6.30;47.82
76990;BME280;65924;47.250;11.332;2023-04-07T02:46:11;94819.45;;;6.30;47.59
76990;BME280;65924;47.250;11.332;2023-04-07T02:46:50;94817.08;;;6.30;47.60
76990;BME280;65924;47.250;11.332;2023-04-07T02:47:28;94817.23;;;6.30;47.95
76990;BME280;65924;47.250;11.332;2023-04-07T02:48:07;94818.08;;;6.30;47.69
76990;BME280;65924;47.250;11.332;2023-04-07T02:48:45;94813.36;;;6.30;47.72
76990;BME280;65924;47.250;11.332;2023-04-07T02:49:24;94812.01;;;6.30;47.74
76990;BME280;65924;47.250;11.332;2023-04-07T02:50:03;94812.34;;;6.30;47.73
76990;BME280;65924;47.250;11.332;2023-04-07T02:50:45;94813.70;;;6.30;47.58
76990;BME280;65924;47.250;11.332;2023-04-07T02:51:24;94811.34;;;6.29;47.68
76990;BME280;65924;47.250;11.332;2023-04-07T02:52:04;94813.20;;;6.29;47.66
76990;BME280;65924;47.250;11.332;2023-04-07T02:52:43;94811.16;;;6.30;47.80
76990;BME280;65924;47.250;11.332;2023-04-07T02:53:23;94809.33;;;6.29;47.93
76990;BME280;65924;47.250;11.332;2023-04-07T02:54:02;94811.39;;;6.29;47.97
76990;BME280;65924;47.250;11.332;2023-04-07T02:54:41;94808.36;;;6.28;47.83
76990;BME280;65924;47.250;11.332;2023-04-07T02:55:20;94809.55;;;6.28;47.92
76990;BME280;65924;47.250;11.332;2023-04-07T02:55:58;94808.72;;;6.28;48.18
76990;BME280;65924;47.250;11.332;2023-04-07T02:56:37;94805.55;;;6.27;48.05
76990;BME280;65924;47.250;11.332;2023-04-07T02:57:16;94800.48;;;6.27;47.91
76990;BME280;65924;47.250;11.332;2023-04-07T02:57:54;94803.70;;;6.27;47.83
76990;BME280;65924;47.250;11.332;2023-04-07T02:58:47;94803.25;;;6.26;47.30
76990;BME280;65924;47.250;11.332;2023-04-07T02:59:27;94804.25;;;6.26;47.40
76990;BME280;65924;47.250;11.332;2023-04-07T03:00:06;94804.77;;;6.26;47.78
76990;BME280;65924;47.250;11.332;2023-04-07T03:01:07;94801.27;;;6.25;47.76
76990;BME280;65924;47.250;11.332;2023-04-07T03:01:46;94800.80;;;6.24;47.82
76990;BME280;65924;47.250;11.332;2023-04-07T03:02:25;94805.20;;;6.24;47.79
76990;BME280;65924;47.250;11.332;2023-04-07T03:03:04;94799.63;;;6.24;47.71
76990;BME280;65924;47.250;11.332;2023-04-07T03:03:44;94798.45;;;6.24;47.83
76990;BME280;65924;47.250;11.332;2023-04-07T03:04:31;94800.13;;;6.24;47.79
76990;BME280;65924;47.250;11.332;2023-04-07T03:05:09;94797.92;;;6.24;47.90
76990;BME280;65924;47.250;11.332;2023-04-07T03:05:48;94798.58;;;6.25;47.95
76990;BME280;65924;47.250;11.332;2023-04-07T03:06:26;94803.14;;;6.25;48.00
76990;BME280;65924;47.250;11.332;2023-04-07T03:07:18;94801.64;;;6.24;48.06
76990;BME280;65924;47.250;11.332;2023-04-07T03:07:58;94799.15;;;6.23;47.90
76990;BME280;65924;47.250;11.332;2023-04-07T03:08:37;94800.86;;;6.23;48.09
76990;BME280;65924;47.250;11.332;2023-04-07T03:09:16;94795.97;;;6.23;48.17
76990;BME280;65924;47.250;11.332;2023-04-07T03:09:55;94801.51;;;6.23;48.16
76990;BME280;65924;47.250;11.332;2023-04-07T03:10:33;94800.34;;;6.23;48.07
76990;BME280;65924;47.250;11.332;2023-04-07T03:11:16;94800.02;;;6.23;48.14
76990;BME280;65924;47.250;11.332;2023-04-07T03:11:54;94796.99;;;6.22;48.08
76990;BME280;65924;47.250;11.332;2023-04-07T03:12:34;94799.88;;;6.22;47.99
76990;BME280;65924;47.250;11.332;2023-04-07T03:13:12;94796.71;;;6.21;48.07
76990;BME280;65924;47.250;11.332;2023-04-07T03:13:54;94799.05;;;6.22;47.99
76990;BME280;65924;47.250;11.332;2023-04-07T03:14:33;94798.23;;;6.21;48.12
76990;BME280;65924;47.250;11.332;2023-04-07T03:15:11;94791.45;;;6.18;48.20
76990;BME280;65924;47.250;11.332;2023-04-07T03:15:50;94799.42;;;6.21;48.34
76990;BME280;65924;47.250;11.332;2023-04-07T03:16:29;94799.48;;;6.19;48.27
76990;BME280;65924;47.250;11.332;2023-04-07T03:17:18;94798.35;;;6.18;47.97
76990;BME280;65924;47.250;11.332;2023-04-07T03:17:57;94800.04;;;6.18;48.18
76990;BME280;65924;47.250;11.332;2023-04-07T03:18:35;94797.18;;;6.18;48.21
76990;BME280;65924;47.250;11.332;2023-04-07T03:19:14;94801.77;;;6.18;48.19
76990;BME280;65924;47.250;11.332;2023-04-07T03:20:01;94799.03;;;6.18;48.18
76990;BME280;65924;47.250;11.332;2023-04-07T03:20:39;94796.21;;;6.17;48.12
76990;BME280;65924;47.250;11.332;2023-04-07T03:21:21;94796.40;;;6.17;48.37
76990;BME280;65924;47.250;11.332;2023-04-07T03:21:59;94799.26;;;6.17;48.34
76990;BME280;65924;47.250;11.332;2023-04-07T03:22:38;94796.74;;;6.17;48.53
76990;BME280;65924;47.250;11.332;2023-04-07T03:23:18;94797.07;;;6.17;48.31
76990;BME280;65924;47.250;11.332;2023-04-07T03:23:57;94799.98;;;6.17;48.37
76990;BME280;65924;47.250;11.332;2023-04-07T03:24:35;94793.74;;;6.16;48.36
76990;BME280;65924;47.250;11.332;2023-04-07T03:25:15;94795.27;;;6.16;48.38
76990;BME280;65924;47.250;11.332;2023-04-07T03:25:54;94797.48;;;6.16;48.46
76990;BME280;65924;47.250;11.332;2023-04-07T03:26:33;94792.58;;;6.16;48.35
76990;BME280;65924;47.250;11.332;2023-04-07T03:27:12;94793.27;;;6.15;48.29
76990;BME280;65924;47.250;11.332;2023-04-07T03:27:55;94792.60;;;6.15;48.23
76990;BME280;65924;47.250;11.332;2023-04-07T03:28:34;94794.31;;;6.15;48.28
76990;BME280;65924;47.250;11.332;2023-04-07T03:29:13;94794.29;;;6.15;48.30
76990;BME280;65924;47.250;11.332;2023-04-07T03:29:53;94793.30;;;6.15;48.26
76990;BME280;65924;47.250;11.332;2023-04-07T03:30:32;94795.17;;;6.14;48.21
76990;BME280;65924;47.250;11.332;2023-04-07T03:31:10;94794.14;;;6.15;48.27
76990;BME280;65924;47.250;11.332;2023-04-07T03:31:49;94797.34;;;6.15;48.19
76990;BME280;65924;47.250;11.332;2023-04-07T03:32:28;94794.67;;;6.14;48.22
76990;BME280;65924;47.250;11.332;2023-04-07T03:33:08;94791.30;;;6.14;48.31
76990;BME280;65924;47.250;11.332;2023-04-07T03:33:48;94794.48;;;6.14;48.43
76990;BME280;65924;47.250;11.332;2023-04-07T03:34:27;94790.42;;;6.15;48.51
76990;BME280;65924;47.250;11.332;2023-04-07T03:35:08;94790.42;;;6.15;48.65
76990;BME280;65924;47.250;11.332;2023-04-07T03:35:47;94792.61;;;6.15;48.70
76990;BME280;65924;47.250;11.332;2023-04-07T03:36:26;94788.58;;;6.15;48.74
76990;BME280;65924;47.250;11.332;2023-04-07T03:37:06;94790.59;;;6.15;48.72
76990;BME280;65924;47.250;11.332;2023-04-07T03:37:47;94791.09;;;6.15;48.62
76990;BME280;65924;47.250;11.332;2023-04-07T03:38:28;94787.34;;;6.12;48.67
76990;BME280;65924;47.250;11.332;2023-04-07T03:39:09;94786.71;;;6.15;48.69
76990;BME280;65924;47.250;11.332;2023-04-07T03:39:48;94793.83;;;6.15;48.95
76990;BME280;65924;47.250;11.332;2023-04-07T03:40:37;94792.81;;;6.15;48.78
76990;BME280;65924;47.250;11.332;2023-04-07T03:41:16;94790.34;;;6.13;48.73
76990;BME280;65924;47.250;11.332;2023-04-07T03:41:56;94789.31;;;6.14;48.93
76990;BME280;65924;47.250;11.332;2023-04-07T03:42:38;94788.81;;;6.14;48.76
76990;BME280;65924;47.250;11.332;2023-04-07T03:43:18;94790.31;;;6.14;48.85